Wetonka, South Dakota
Current Conditions -  °F | °C
As of 2:34 AM on Saturday 20 Dec 2014 (Local Time) from KABR Reporting Station
Haze Haze  
Wind Chill: 19°   Ceiling: 400
Heat Index: 28°   Visibility: 4mi
Dew Point: 25°   Wind: 10mph
Humidity: 88%   Direction: 190°S
Pressure: 30.02"   Gusts: NA
Location:  45.6082°N, 98.6649°W
Report Text: KABR 200834Z AUTO 19009KT 4SM BR OVC004 M02/M04 A3002 RMK AO2 T10221039
Loading
Personal Weather Stations






























Interactive Weather Map New forecast layout! Learn more

10-Day Weather Forecast

Advertisements
Track Severe Weather on mobile